Time;durP1;ratioP1;P1;durP2;ratioP2;P2;SDS_P1;SDS_P2;PMS_P1;PMS_P2;Temp;Humidity;BMP_temperature;BMP_pressure;BME280_temperature;BME280_humidity;BME280_pressure;Samples;Min_cycle;Max_cycle;Signal;HPM_P1;HPM_P2
2021/08/28 00:00:36;;;;;;;19.03;8.83;;;;;;;19.70;79.31;100215.46;126265;1099;104214;-77
2021/08/28 00:03:06;;;;;;;18.23;8.55;;;;;;;19.69;79.69;100208.36;126294;1099;104127;-77
2021/08/28 00:05:37;;;;;;;17.77;9.37;;;;;;;19.64;80.05;100226.14;126288;1099;104149;-78
2021/08/28 00:08:09;;;;;;;17.37;9.13;;;;;;;19.65;79.69;100235.91;126350;1099;104162;-78
2021/08/28 00:10:41;;;;;;;17.50;8.83;;;;;;;19.66;80.22;100234.99;126352;1099;104191;-77
2021/08/28 00:13:12;;;;;;;14.83;7.60;;;;;;;19.65;81.17;100235.00;126342;1099;101964;-78
2021/08/28 00:15:43;;;;;;;16.43;8.40;;;;;;;19.69;80.31;100229.66;126260;1099;104169;-79
2021/08/28 00:18:14;;;;;;;15.93;8.40;;;;;;;19.71;81.29;100225.23;126344;1099;104188;-78
2021/08/28 00:20:45;;;;;;;17.33;9.10;;;;;;;19.72;81.49;100228.77;126348;1099;104277;-78
2021/08/28 00:23:16;;;;;;;16.77;8.50;;;;;;;19.72;81.06;100239.41;126351;1099;104162;-78
2021/08/28 00:25:47;;;;;;;16.60;8.53;;;;;;;19.71;80.73;100237.63;126264;1099;104142;-77
2021/08/28 00:28:17;;;;;;;18.33;9.10;;;;;;;19.75;81.76;100239.39;126274;1099;104334;-78
2021/08/28 00:30:48;;;;;;;16.00;8.37;;;;;;;19.77;81.21;100236.75;126334;1099;104272;-78
2021/08/28 00:33:19;;;;;;;18.03;8.13;;;;;;;19.78;81.66;100235.87;126332;1099;104162;-78
2021/08/28 00:35:50;;;;;;;17.90;8.17;;;;;;;19.75;81.66;100234.94;126277;1099;104194;-78
2021/08/28 00:38:21;;;;;;;16.07;8.70;;;;;;;19.73;81.79;100244.72;126314;1098;104740;-77
2021/08/28 00:40:52;;;;;;;20.47;9.27;;;;;;;19.67;82.04;100239.44;126307;1099;104310;-78
2021/08/28 00:43:22;;;;;;;17.80;8.70;;;;;;;19.60;81.58;100239.48;126307;1099;104150;-77
2021/08/28 00:45:53;;;;;;;15.17;8.00;;;;;;;19.63;82.20;100239.46;126295;1099;104153;-78
2021/08/28 00:48:24;;;;;;;15.83;8.20;;;;;;;19.60;82.74;100234.16;126322;1099;104143;-77
2021/08/28 00:50:55;;;;;;;15.67;8.37;;;;;;;19.64;82.44;100242.11;126339;1099;104226;-78
2021/08/28 00:53:26;;;;;;;14.80;7.70;;;;;;;19.68;82.25;100238.55;126310;1097;104174;-79
2021/08/28 00:55:57;;;;;;;15.80;7.97;;;;;;;19.70;82.61;100223.45;126329;1099;104242;-77
2021/08/28 00:58:28;;;;;;;13.93;7.30;;;;;;;19.62;82.64;100233.27;126286;1099;110821;-77
2021/08/28 01:01:03;;;;;;;14.57;7.17;;;;;;;19.61;83.08;100246.58;126348;1099;104178;-78
2021/08/28 01:03:38;;;;;;;14.20;7.67;;;;;;;19.65;82.76;100241.23;126288;1097;104165;-78
2021/08/28 01:06:15;;;;;;;14.97;8.00;;;;;;;19.68;83.15;100246.53;126288;1099;104227;-78
2021/08/28 01:09:11;;;;;;;17.50;9.00;;;;;;;19.72;83.40;100255.38;126274;1099;104153;-79
2021/08/28 01:12:05;;;;;;;15.67;8.63;;;;;;;19.71;83.55;100257.17;126323;1098;104197;-79
2021/08/28 01:14:42;;;;;;;16.27;8.33;;;;;;;19.67;83.02;100262.52;126324;1099;104146;-78
2021/08/28 01:17:16;;;;;;;15.83;8.10;;;;;;;19.57;82.92;100261.66;126295;1099;104595;-78
2021/08/28 01:20:01;;;;;;;15.77;7.97;;;;;;;19.50;83.22;100267.92;126322;1099;104163;-78
2021/08/28 01:22:53;;;;;;;15.35;8.18;;;;;;;19.38;83.97;100267.09;126370;1098;104146;-79
2021/08/28 01:25:45;;;;;;;18.90;8.33;;;;;;;19.37;83.72;100275.08;126357;1099;104150;-78
2021/08/28 01:28:28;;;;;;;15.10;8.17;;;;;;;19.38;84.41;100276.83;126308;1099;104245;-77
2021/08/28 01:31:00;;;;;;;16.03;8.37;;;;;;;19.34;83.76;100278.63;126325;1099;104182;-77
2021/08/28 01:33:31;;;;;;;15.90;8.07;;;;;;;19.25;84.24;100277.78;126294;1099;104249;-77
2021/08/28 01:36:05;;;;;;;17.55;9.05;;;;;;;19.20;84.23;100273.35;126340;1099;104216;-77
2021/08/28 01:38:56;;;;;;;16.37;8.50;;;;;;;19.20;84.71;100276.02;126272;1099;104219;-79
2021/08/28 01:41:31;;;;;;;12.50;7.73;;;;;;;19.19;83.69;100273.36;126295;1099;104219;-78
2021/08/28 01:44:08;;;;;;;17.53;8.80;;;;;;;19.10;83.97;100273.38;126229;1099;104181;-77
2021/08/28 01:46:39;;;;;;;16.13;8.13;;;;;;;19.00;83.83;100278.72;126310;1099;104313;-78
2021/08/28 01:49:13;;;;;;;17.30;9.00;;;;;;;18.92;84.62;100291.16;126275;1097;104153;-78
2021/08/28 01:51:47;;;;;;;14.13;7.90;;;;;;;18.89;84.65;100304.45;126347;1099;104144;-77
2021/08/28 01:54:30;;;;;;;13.07;7.33;;;;;;;18.81;85.19;100304.43;126311;1099;104198;-77
2021/08/28 01:57:04;;;;;;;18.43;8.63;;;;;;;18.78;85.19;100308.88;126237;1098;104188;-77
2021/08/28 01:59:33;;;;;;;;;;;;;;;18.74;84.16;100315.95;126288;1097;104229;-77
2021/08/28 02:02:15;;;;;;;15.93;7.90;;;;;;;18.74;85.63;100315.07;126348;1097;104824;-77
2021/08/28 02:04:53;;;;;;;14.73;7.73;;;;;;;18.78;85.33;100298.24;126265;1099;104172;-78
2021/08/28 02:07:35;;;;;;;13.75;7.85;;;;;;;18.76;84.78;100298.25;126339;1099;104176;-77
2021/08/28 02:10:16;;;;;;;13.77;7.33;;;;;;;18.75;84.82;100295.59;126302;1099;104147;-77
2021/08/28 02:12:50;;;;;;;13.70;7.67;;;;;;;18.70;85.13;100290.27;126319;1099;104309;-78
2021/08/28 02:15:27;;;;;;;15.77;7.60;;;;;;;18.66;85.38;100289.38;126306;1099;104192;-77
2021/08/28 02:18:05;;;;;;;19.50;7.97;;;;;;;18.63;86.12;100296.47;126325;1099;104146;-77
2021/08/28 02:20:51;;;;;;;14.53;7.73;;;;;;;18.55;85.42;100291.16;126291;1099;104171;-77
2021/08/28 02:23:28;;;;;;;13.90;7.57;;;;;;;18.51;85.56;100294.69;126373;1099;104133;-78
2021/08/28 02:26:22;;;;;;;14.00;7.70;;;;;;;18.45;85.45;100306.22;126276;1099;104345;-79
2021/08/28 02:29:00;;;;;;;14.53;7.93;;;;;;;18.43;85.59;100315.97;126221;1099;104130;-78
2021/08/28 02:31:36;;;;;;;14.87;7.37;;;;;;;18.41;85.96;100323.03;126316;1099;104159;-77
2021/08/28 02:34:12;;;;;;;13.07;7.70;;;;;;;18.41;86.32;100335.44;126344;1097;104586;-77
2021/08/28 02:36:46;;;;;;;15.00;7.57;;;;;;;18.43;86.56;100331.00;126329;1097;104160;-77
2021/08/28 02:39:19;;;;;;;15.40;7.57;;;;;;;18.41;86.84;100349.59;126256;1099;104286;-78
2021/08/28 02:41:51;;;;;;;14.83;7.40;;;;;;;18.35;87.20;100349.59;126294;1099;104194;-77
2021/08/28 02:44:25;;;;;;;11.73;6.80;;;;;;;18.28;87.03;100342.52;126290;1099;104146;-77
2021/08/28 02:46:58;;;;;;;12.77;6.97;;;;;;;18.18;87.44;100330.09;126375;1099;104560;-78
2021/08/28 02:49:31;;;;;;;11.13;5.90;;;;;;;18.08;86.73;100314.14;126282;1099;104229;-77
2021/08/28 02:52:05;;;;;;;13.53;6.50;;;;;;;18.01;86.63;100312.34;126299;1098;104139;-78
2021/08/28 02:54:41;;;;;;;14.67;7.00;;;;;;;17.95;86.97;100323.85;126355;1099;104251;-77
2021/08/28 02:57:12;;;;;;;12.73;6.60;;;;;;;17.91;86.88;100322.06;126356;1099;104634;-78
2021/08/28 02:59:44;;;;;;;10.37;5.83;;;;;;;17.89;86.74;100334.45;126284;1098;104133;-78
2021/08/28 03:02:18;;;;;;;12.67;6.33;;;;;;;17.86;86.99;100336.19;126346;1098;104255;-78
2021/08/28 03:04:50;;;;;;;15.10;6.77;;;;;;;17.87;87.16;100336.20;126295;1099;104169;-78
2021/08/28 03:07:21;;;;;;;16.47;7.23;;;;;;;17.90;87.28;100330.93;126340;1099;104150;-79
2021/08/28 03:09:54;;;;;;;11.73;6.30;;;;;;;17.88;87.09;100343.28;126291;1098;104223;-78
2021/08/28 03:12:25;;;;;;;13.43;6.80;;;;;;;17.81;86.76;100354.75;126325;1099;104140;-78
2021/08/28 03:14:56;;;;;;;12.60;7.00;;;;;;;17.78;86.50;100347.66;126371;1099;104235;-78
2021/08/28 03:17:29;;;;;;;12.33;6.43;;;;;;;17.72;86.89;100352.94;126295;1099;104140;-78
2021/08/28 03:20:02;;;;;;;12.93;6.47;;;;;;;17.59;87.52;100359.97;126288;1097;104187;-79
2021/08/28 03:22:36;;;;;;;13.07;6.33;;;;;;;17.51;86.71;100361.66;126320;1099;104150;-77
2021/08/28 03:25:09;;;;;;;13.20;6.87;;;;;;;17.47;87.31;100369.59;126358;1099;105312;-78
2021/08/28 03:27:43;;;;;;;13.30;6.50;;;;;;;17.41;86.69;100367.82;126330;1097;104326;-79
2021/08/28 03:30:18;;;;;;;13.33;6.73;;;;;;;17.35;87.05;100375.74;126272;1099;105195;-78
2021/08/28 03:32:53;;;;;;;13.17;6.40;;;;;;;17.29;87.22;100371.28;126328;1099;104175;-78
2021/08/28 03:35:25;;;;;;;15.47;7.40;;;;;;;17.24;86.96;100375.67;126344;1099;104149;-79
2021/08/28 03:37:57;;;;;;;14.77;7.63;;;;;;;17.20;87.09;100373.87;126345;1099;104162;-78
2021/08/28 03:40:28;;;;;;;14.37;7.10;;;;;;;17.19;87.44;100370.34;126285;1098;104143;-79
2021/08/28 03:43:00;;;;;;;13.50;6.73;;;;;;;17.18;87.59;100379.16;126323;1097;104287;-78
2021/08/28 03:45:31;;;;;;;15.40;6.50;;;;;;;17.21;87.56;100388.91;126328;1099;104147;-80
2021/08/28 03:48:03;;;;;;;17.03;6.97;;;;;;;17.21;87.64;100391.56;126320;1099;104137;-78
2021/08/28 03:50:35;;;;;;;13.77;6.70;;;;;;;17.21;87.27;100375.66;126321;1099;104659;-79
2021/08/28 03:53:07;;;;;;;14.33;7.27;;;;;;;17.29;87.81;100378.36;126349;1099;104415;-78
2021/08/28 03:55:38;;;;;;;15.17;6.87;;;;;;;17.31;87.85;100377.50;126326;1099;104133;-79
2021/08/28 03:58:08;;;;;;;13.47;6.40;;;;;;;17.31;88.00;100384.55;126289;1099;104627;-78
2021/08/28 04:00:40;;;;;;;15.07;6.90;;;;;;;17.27;88.11;100381.00;126284;1099;104278;-81
2021/08/28 04:03:11;;;;;;;15.70;7.20;;;;;;;17.23;87.87;100384.49;126338;1099;104208;-79
2021/08/28 04:05:42;;;;;;;14.80;6.97;;;;;;;17.23;88.17;100381.84;126335;1099;104192;-80
2021/08/28 04:08:18;;;;;;;13.63;6.77;;;;;;;17.23;88.25;100384.49;126289;1099;104141;-78
2021/08/28 04:10:51;;;;;;;16.70;7.55;;;;;;;17.21;88.29;100376.53;126294;1099;104322;-79
2021/08/28 04:13:26;;;;;;;17.17;7.70;;;;;;;17.20;87.97;100374.78;126330;1099;104147;-79
2021/08/28 04:15:57;;;;;;;12.87;6.97;;;;;;;17.21;88.14;100368.58;126384;1099;104245;-78
2021/08/28 04:18:46;;;;;;;19.33;8.07;;;;;;;17.28;88.03;100371.27;126334;1099;104232;-79
2021/08/28 04:21:37;;;;;;;15.07;7.57;;;;;;;17.35;88.16;100389.00;126267;1099;104222;-79
2021/08/28 04:24:09;;;;;;;15.17;7.53;;;;;;;17.40;88.06;100397.86;126343;1099;104210;-79
2021/08/28 04:26:55;;;;;;;14.20;7.13;;;;;;;17.47;88.25;100393.47;126345;1099;101903;-79
2021/08/28 04:29:26;;;;;;;14.90;6.97;;;;;;;17.52;88.12;100394.41;126330;1099;104219;-79
2021/08/28 04:31:58;;;;;;;14.87;7.80;;;;;;;17.49;87.77;100389.96;126290;1099;104209;-78
2021/08/28 04:34:29;;;;;;;14.53;7.70;;;;;;;17.49;88.24;100394.39;126298;1098;104213;-78
2021/08/28 04:36:59;;;;;;;18.47;8.03;;;;;;;17.49;88.17;100402.35;126323;1099;104162;-79
2021/08/28 04:39:32;;;;;;;16.50;7.63;;;;;;;17.49;88.46;100403.23;126340;1099;104146;-79
2021/08/28 04:42:04;;;;;;;19.15;8.65;;;;;;;17.50;88.93;100404.10;126265;1099;104146;-78
2021/08/28 04:44:35;;;;;;;15.93;7.67;;;;;;;17.46;88.41;100415.59;126321;1099;104221;-79
2021/08/28 04:47:08;;;;;;;17.37;8.03;;;;;;;17.45;88.48;100409.38;126292;1099;104137;-78
2021/08/28 04:49:40;;;;;;;15.40;7.77;;;;;;;17.47;88.77;100412.04;126287;1099;104239;-79
2021/08/28 04:52:26;;;;;;;16.90;8.50;;;;;;;17.51;88.21;100414.72;126218;1099;104174;-79
2021/08/28 04:54:57;;;;;;;16.20;8.50;;;;;;;17.57;88.03;100416.53;126371;1097;104208;-78
2021/08/28 04:57:28;;;;;;;17.33;8.40;;;;;;;17.61;88.37;100421.87;126373;1099;104162;-79
2021/08/28 05:00:00;;;;;;;18.17;9.67;;;;;;;17.64;88.69;100421.01;126301;1099;104140;-78
2021/08/28 05:02:45;;;;;;;15.83;8.07;;;;;;;17.69;89.02;100418.38;126303;1099;104146;-78
2021/08/28 05:05:17;;;;;;;18.73;8.47;;;;;;;17.70;88.43;100412.17;126317;1099;104143;-80
2021/08/28 05:07:47;;;;;;;16.27;8.50;;;;;;;17.70;88.37;100414.83;126330;1099;104233;-78
2021/08/28 05:10:19;;;;;;;19.60;8.93;;;;;;;17.75;89.33;100427.25;126347;1099;105136;-76
2021/08/28 05:12:51;;;;;;;17.03;8.10;;;;;;;17.75;88.52;100426.38;126247;1099;103739;-78
2021/08/28 05:15:23;;;;;;;17.17;8.80;;;;;;;17.78;88.88;100442.31;126343;1097;104156;-79
2021/08/28 05:17:56;;;;;;;15.90;8.13;;;;;;;17.81;88.71;100436.12;126275;1098;104312;-78
2021/08/28 05:20:28;;;;;;;16.53;8.00;;;;;;;17.84;88.15;100441.44;126307;1097;104185;-77
2021/08/28 05:23:16;;;;;;;16.60;8.60;;;;;;;17.90;88.25;100438.84;126267;1099;105553;-78
2021/08/28 05:26:06;;;;;;;17.27;8.53;;;;;;;17.92;88.38;100440.64;126315;1099;104348;-78
2021/08/28 05:28:39;;;;;;;16.17;8.30;;;;;;;17.95;88.45;100442.41;126338;1099;104140;-79
2021/08/28 05:31:14;;;;;;;18.50;9.03;;;;;;;18.01;88.82;100449.52;126308;1098;104165;-78
2021/08/28 05:33:45;;;;;;;16.47;8.47;;;;;;;18.05;88.68;100448.66;126244;1099;104318;-78
2021/08/28 05:36:20;;;;;;;16.40;8.33;;;;;;;18.09;88.05;100448.69;126269;1099;104739;-78
2021/08/28 05:39:10;;;;;;;16.97;8.23;;;;;;;18.08;88.63;100449.55;126263;1099;104146;-78
2021/08/28 05:41:41;;;;;;;18.00;7.97;;;;;;;18.05;88.41;100454.85;126309;1099;104596;-78
2021/08/28 05:44:14;;;;;;;17.57;8.03;;;;;;;18.01;88.51;100465.45;126263;1099;104156;-79
2021/08/28 05:46:47;;;;;;;15.50;7.75;;;;;;;18.00;88.99;100474.28;126331;1098;104171;-78
2021/08/28 05:49:24;;;;;;;18.77;8.47;;;;;;;18.02;88.92;100493.78;126256;1099;104265;-79
2021/08/28 05:52:00;;;;;;;18.10;8.23;;;;;;;18.09;89.20;100493.83;126285;1099;104363;-77
2021/08/28 05:54:33;;;;;;;19.53;8.23;;;;;;;18.13;88.95;100498.25;126269;1099;104242;-78
2021/08/28 05:57:06;;;;;;;16.97;8.53;;;;;;;18.21;89.73;100492.09;126368;1098;104229;-78
2021/08/28 05:59:37;;;;;;;17.27;8.03;;;;;;;18.22;89.00;100473.52;126361;1098;104252;-78
2021/08/28 06:02:13;;;;;;;17.10;8.47;;;;;;;18.23;88.44;100479.70;126262;1099;104253;-78
2021/08/28 06:04:44;;;;;;;14.97;7.50;;;;;;;18.22;88.41;100477.95;126263;1098;104172;-78
2021/08/28 06:07:30;;;;;;;17.37;7.87;;;;;;;18.22;87.85;100462.02;126377;1098;104153;-79
2021/08/28 06:10:16;;;;;;;15.47;7.37;;;;;;;18.24;88.08;100469.08;126323;1099;104140;-77
2021/08/28 06:12:51;;;;;;;16.00;7.67;;;;;;;18.30;87.94;100473.54;126369;1099;104290;-78
2021/08/28 06:15:36;;;;;;;15.27;6.63;;;;;;;18.38;88.45;100477.10;126365;1099;118549;-78
2021/08/28 06:18:14;;;;;;;18.15;7.25;;;;;;;18.55;88.29;100477.16;126329;1099;104280;-78
2021/08/28 06:20:45;;;;;;;13.90;6.67;;;;;;;18.63;87.71;100472.73;126340;1097;104166;-78
2021/08/28 06:23:16;;;;;;;14.87;6.57;;;;;;;18.65;86.97;100480.71;126319;1099;104141;-79
2021/08/28 06:26:06;;;;;;;13.13;5.90;;;;;;;18.61;86.49;100486.92;126284;1099;104169;-78
2021/08/28 06:28:37;;;;;;;14.13;6.17;;;;;;;18.64;87.20;100487.81;126344;1099;104262;-78
2021/08/28 06:31:08;;;;;;;10.37;5.43;;;;;;;18.71;86.92;100479.85;126321;1099;104302;-79
2021/08/28 06:33:39;;;;;;;10.87;5.67;;;;;;;18.76;86.88;100481.64;126329;1099;104331;-78
2021/08/28 06:36:12;;;;;;;9.93;5.43;;;;;;;18.80;87.01;100475.42;126216;1099;104347;-78
2021/08/28 06:38:57;;;;;;;13.77;6.23;;;;;;;18.86;86.44;100477.25;126326;1099;104287;-77
2021/08/28 06:41:47;;;;;;;10.73;5.73;;;;;;;18.96;86.08;100479.02;126345;1099;104228;-78
2021/08/28 06:44:36;;;;;;;10.50;5.67;;;;;;;19.04;85.60;100487.91;126254;1099;104453;-78
2021/08/28 06:47:27;;;;;;;13.53;5.63;;;;;;;19.12;85.69;100490.58;126367;1099;104265;-78
2021/08/28 06:50:17;;;;;;;12.80;5.67;;;;;;;19.24;84.93;100494.12;126295;1099;104242;-78
2021/08/28 06:53:07;;;;;;;13.03;6.10;;;;;;;19.30;83.87;100494.12;126336;1099;104192;-78
2021/08/28 06:55:58;;;;;;;16.03;5.87;;;;;;;19.34;84.26;100511.86;126290;1098;104255;-77
2021/08/28 06:58:46;;;;;;;14.27;5.77;;;;;;;19.46;84.31;100502.97;126326;1098;104306;-78
2021/08/28 07:01:36;;;;;;;11.63;5.60;;;;;;;19.53;83.58;100502.09;126359;1098;104172;-78
2021/08/28 07:04:27;;;;;;;12.80;5.87;;;;;;;19.55;83.29;100505.63;126320;1099;104217;-78
2021/08/28 07:07:14;;;;;;;14.20;5.77;;;;;;;19.54;82.80;100509.16;126261;1099;104287;-78
2021/08/28 07:09:47;;;;;;;13.87;5.73;;;;;;;19.56;83.34;100515.39;126344;1099;104140;-78
2021/08/28 07:12:19;;;;;;;9.23;5.13;;;;;;;19.63;84.00;100511.81;126322;1099;104169;-78
2021/08/28 07:14:50;;;;;;;12.23;5.50;;;;;;;19.67;83.33;100508.27;126346;1099;104144;-78
2021/08/28 07:17:36;;;;;;;11.33;5.53;;;;;;;19.69;84.13;100511.81;126287;1099;111998;-78
2021/08/28 07:20:10;;;;;;;9.17;5.10;;;;;;;19.69;83.61;100510.94;126350;1099;104711;-78
2021/08/28 07:22:42;;;;;;;13.63;5.80;;;;;;;19.57;83.38;100506.50;126367;1099;104174;-78
2021/08/28 07:25:24;;;;;;;12.00;5.40;;;;;;;19.46;82.44;100511.86;126310;1097;104188;-78
2021/08/28 07:27:55;;;;;;;11.70;5.10;;;;;;;19.44;82.69;100510.08;126317;1099;104147;-79
2021/08/28 07:30:46;;;;;;;14.17;5.70;;;;;;;19.43;82.87;100510.95;126311;1099;104205;-77
2021/08/28 07:33:17;;;;;;;12.03;5.30;;;;;;;19.45;82.97;100494.11;126319;1099;104191;-78
2021/08/28 07:35:48;;;;;;;14.80;5.33;;;;;;;19.39;81.38;100487.02;126288;1099;104621;-78
2021/08/28 07:38:19;;;;;;;12.80;5.40;;;;;;;19.40;81.65;100498.56;126290;1099;104158;-78
2021/08/28 07:40:50;;;;;;;13.83;5.53;;;;;;;19.40;81.26;100493.24;126356;1099;104152;-78
2021/08/28 07:43:21;;;;;;;13.73;5.77;;;;;;;19.42;81.95;100490.58;126338;1097;104194;-76
2021/08/28 07:45:57;;;;;;;9.63;4.97;;;;;;;19.42;80.14;100485.26;126259;1099;104210;-79
2021/08/28 07:48:30;;;;;;;11.67;5.40;;;;;;;19.42;80.34;100482.59;126270;1099;119020;-78
2021/08/28 07:51:02;;;;;;;16.27;5.50;;;;;;;19.51;81.69;100498.52;126305;1099;104150;-78
2021/08/28 07:53:33;;;;;;;12.20;5.13;;;;;;;19.61;80.35;100510.95;126332;1099;104239;-78
2021/08/28 07:56:05;;;;;;;14.37;5.30;;;;;;;19.78;81.06;100510.08;126329;1099;104232;-78
2021/08/28 07:58:36;;;;;;;11.50;5.50;;;;;;;20.05;82.19;100504.66;126288;1099;104142;-78
2021/08/28 08:01:11;;;;;;;8.27;4.83;;;;;;;20.34;81.79;100511.67;126332;1099;104227;-77
2021/08/28 08:03:48;;;;;;;9.07;4.90;;;;;;;20.40;80.31;100516.97;126311;1097;104249;-78
2021/08/28 08:06:30;;;;;;;12.83;5.00;;;;;;;20.30;80.04;100504.56;126315;1099;104166;-78
2021/08/28 08:09:16;;;;;;;8.27;4.50;;;;;;;20.28;80.25;100509.03;126242;1099;110765;-78
2021/08/28 08:12:06;;;;;;;11.30;4.80;;;;;;;20.40;80.30;100500.98;126325;1099;104650;-78
2021/08/28 08:14:56;;;;;;;8.83;4.83;;;;;;;20.62;79.92;100495.55;126318;1099;104144;-77
2021/08/28 08:17:47;;;;;;;9.37;4.13;;;;;;;20.83;75.53;100500.78;126279;1099;104239;-80
2021/08/28 08:20:36;;;;;;;10.60;4.70;;;;;;;20.93;77.70;100495.39;126342;1099;104229;-78
2021/08/28 08:23:26;;;;;;;8.23;4.57;;;;;;;21.10;78.05;100504.14;126338;1099;104162;-78
2021/08/28 08:26:16;;;;;;;11.93;4.80;;;;;;;21.25;76.25;100515.59;126345;1099;104171;-77
2021/08/28 08:29:09;;;;;;;10.90;4.67;;;;;;;21.22;75.75;100512.95;126220;1099;104296;-78
2021/08/28 08:31:44;;;;;;;8.63;4.10;;;;;;;21.27;74.93;100517.36;126306;1099;104303;-78
2021/08/28 08:34:27;;;;;;;11.17;4.60;;;;;;;21.34;74.20;100505.71;126363;1098;104137;-78
2021/08/28 08:36:59;;;;;;;8.90;4.58;;;;;;;21.47;74.92;100509.19;126353;1099;104278;-78
2021/08/28 08:39:30;;;;;;;10.03;4.10;;;;;;;21.65;75.51;100507.27;126326;1097;104149;-77
2021/08/28 08:42:02;;;;;;;7.47;3.70;;;;;;;21.72;74.01;100504.52;126358;1099;104156;-79
2021/08/28 08:44:35;;;;;;;8.37;4.20;;;;;;;21.85;73.21;100499.92;126322;1099;104139;-78
2021/08/28 08:47:08;;;;;;;9.70;4.33;;;;;;;21.97;71.17;100503.36;126369;1099;104166;-77
2021/08/28 08:49:39;;;;;;;7.93;4.30;;;;;;;22.05;71.35;100493.49;126270;1099;104133;-78
2021/08/28 08:52:11;;;;;;;8.17;3.80;;;;;;;22.14;70.63;100497.82;126379;1099;104139;-77
2021/08/28 08:54:59;;;;;;;8.53;4.17;;;;;;;22.36;69.39;100496.70;126312;1099;104784;-77
2021/08/28 08:57:31;;;;;;;6.80;4.17;;;;;;;22.47;69.31;100496.56;126304;1097;104431;-77
2021/08/28 09:00:03;;;;;;;7.87;4.27;;;;;;;22.52;67.88;100502.72;126223;1099;104191;-79
2021/08/28 09:02:38;;;;;;;8.90;4.70;;;;;;;22.57;68.20;100498.18;126330;1099;104168;-78
2021/08/28 09:05:26;;;;;;;9.50;4.20;;;;;;;22.49;68.23;100496.54;126329;1099;104201;-79
2021/08/28 09:07:58;;;;;;;8.67;4.47;;;;;;;22.48;67.36;100505.45;126345;1099;104144;-78
2021/08/28 09:10:29;;;;;;;10.30;4.60;;;;;;;22.47;65.92;100503.67;126355;1099;107041;-77
2021/08/28 09:13:16;;;;;;;11.57;4.20;;;;;;;22.51;66.97;100495.59;126352;1099;104171;-78
2021/08/28 09:15:48;;;;;;;7.57;4.30;;;;;;;22.56;68.07;100493.77;126335;1099;104168;-78
2021/08/28 09:18:19;;;;;;;10.30;4.30;;;;;;;22.67;68.05;100490.91;126290;1098;104615;-79
2021/08/28 09:20:50;;;;;;;10.60;4.40;;;;;;;22.79;66.62;100495.20;126355;1099;104158;-77
2021/08/28 09:23:22;;;;;;;8.13;4.40;;;;;;;22.78;65.38;100491.66;126351;1099;104163;-77
2021/08/28 09:25:54;;;;;;;6.60;4.20;;;;;;;22.83;66.47;100496.94;126315;1099;104142;-78
2021/08/28 09:28:35;;;;;;;6.40;3.60;;;;;;;22.77;64.90;100491.68;126321;1097;104290;-77
2021/08/28 09:31:07;;;;;;;7.50;3.90;;;;;;;22.69;64.89;100497.14;126317;1099;104143;-79
2021/08/28 09:33:38;;;;;;;7.67;3.87;;;;;;;22.66;63.55;100499.86;126360;1099;104219;-78
2021/08/28 09:36:09;;;;;;;6.67;3.83;;;;;;;22.66;63.62;100501.63;126276;1097;104146;-77
2021/08/28 09:38:41;;;;;;;8.10;3.83;;;;;;;22.67;63.06;100500.73;126327;1099;104236;-79
2021/08/28 09:41:12;;;;;;;6.17;3.80;;;;;;;22.77;63.81;100497.91;126278;1099;111893;-77
2021/08/28 09:43:43;;;;;;;6.67;3.87;;;;;;;22.85;63.06;100500.47;126353;1099;104249;-78
2021/08/28 09:46:14;;;;;;;8.17;4.00;;;;;;;22.93;62.85;100497.67;126359;1099;104602;-77
2021/08/28 09:48:58;;;;;;;10.00;3.90;;;;;;;23.02;63.04;100500.21;126323;1098;104242;-79
2021/08/28 09:51:35;;;;;;;8.40;3.90;;;;;;;23.06;62.33;100498.36;126281;1098;104179;-79
2021/08/28 09:54:10;;;;;;;7.70;4.20;;;;;;;23.14;62.43;100500.05;126340;1099;104152;-78
2021/08/28 09:56:42;;;;;;;9.07;4.77;;;;;;;23.24;62.20;100505.25;126287;1098;104271;-79
2021/08/28 09:59:23;;;;;;;12.90;4.40;;;;;;;23.36;62.29;100498.79;126329;1099;105283;-79
2021/08/28 10:01:55;;;;;;;12.87;4.10;;;;;;;23.45;61.49;100490.59;126348;1099;109294;-77
2021/08/28 10:04:26;;;;;;;7.60;4.30;;;;;;;23.62;61.75;100496.56;126279;1098;104200;-78
2021/08/28 10:06:58;;;;;;;6.30;3.60;;;;;;;23.66;60.55;100492.89;126328;1099;104242;-78
2021/08/28 10:09:30;;;;;;;6.40;3.67;;;;;;;23.66;60.72;100492.02;126327;1099;104152;-78
2021/08/28 10:12:00;;;;;;;8.50;4.17;;;;;;;23.61;59.40;100496.59;126290;1099;104250;-78
2021/08/28 10:14:40;;;;;;;6.27;3.30;;;;;;;23.69;59.94;100492.84;126286;1099;104149;-77
2021/08/28 10:17:13;;;;;;;7.90;3.50;;;;;;;23.80;60.32;100494.45;126289;1099;104200;-76
2021/08/28 10:19:45;;;;;;;7.50;3.97;;;;;;;23.88;59.73;100499.69;126263;1099;104221;-78
2021/08/28 10:22:20;;;;;;;5.93;3.60;;;;;;;23.90;59.13;100504.09;126279;1097;104245;-77
2021/08/28 10:24:57;;;;;;;11.07;4.17;;;;;;;23.91;59.03;100497.83;126321;1099;104203;-78
2021/08/28 10:27:28;;;;;;;5.37;3.60;;;;;;;24.08;59.00;100501.98;126335;1098;104159;-79
2021/08/28 10:29:59;;;;;;;8.03;3.83;;;;;;;24.11;57.81;100491.20;126356;1099;104163;-78
2021/08/28 10:32:30;;;;;;;7.77;3.50;;;;;;;24.09;58.40;100491.23;126209;1099;112762;-78
2021/08/28 10:35:03;;;;;;;7.63;4.07;;;;;;;24.09;57.61;100488.55;126340;1099;105101;-77
2021/08/28 10:37:35;;;;;;;5.97;3.87;;;;;;;24.06;57.05;100488.61;126343;1099;104140;-77
2021/08/28 10:40:15;;;;;;;8.70;4.20;;;;;;;24.08;57.89;100492.13;126338;1099;104331;-77
2021/08/28 10:42:46;;;;;;;7.20;4.00;;;;;;;24.10;57.33;100487.61;126213;1099;104143;-76
2021/08/28 10:45:24;;;;;;;8.67;3.70;;;;;;;24.14;57.71;100477.73;126342;1099;104207;-78
2021/08/28 10:48:13;;;;;;;7.00;3.90;;;;;;;24.03;56.52;100476.14;126373;1099;104192;-78
2021/08/28 10:50:45;;;;;;;7.37;3.60;;;;;;;23.95;56.25;100478.11;126294;1099;104150;-77
2021/08/28 10:53:17;;;;;;;7.07;3.90;;;;;;;23.88;56.36;100487.17;126310;1099;107070;-77
2021/08/28 10:55:52;;;;;;;6.83;3.70;;;;;;;23.72;56.23;100485.65;126332;1098;104163;-78
2021/08/28 10:58:24;;;;;;;7.50;4.07;;;;;;;23.65;56.54;100492.92;126308;1099;104239;-79
2021/08/28 11:00:56;;;;;;;6.13;3.87;;;;;;;23.66;56.79;100494.70;126317;1099;104666;-78
2021/08/28 11:03:30;;;;;;;6.30;3.57;;;;;;;23.55;55.78;100488.67;126288;1099;104256;-77
2021/08/28 11:06:25;;;;;;;6.33;3.83;;;;;;;23.59;55.91;100488.58;126271;1099;104258;-77
2021/08/28 11:09:00;;;;;;;6.90;3.73;;;;;;;23.59;55.33;100476.97;126226;1099;104261;-77
2021/08/28 11:11:48;;;;;;;7.33;3.87;;;;;;;23.54;54.80;100485.08;126247;1099;104152;-78
2021/08/28 11:14:40;;;;;;;6.97;4.03;;;;;;;23.54;55.67;100474.37;126383;1099;104178;-78
2021/08/28 11:17:14;;;;;;;11.63;3.57;;;;;;;23.59;56.37;100476.97;126289;1099;104205;-78
2021/08/28 11:20:01;;;;;;;8.75;4.20;;;;;;;23.57;55.51;100484.16;126272;1099;105357;-77
2021/08/28 11:22:39;;;;;;;7.33;3.40;;;;;;;23.55;55.80;100480.63;126301;1099;104293;-79
2021/08/28 11:25:13;;;;;;;9.37;3.20;;;;;;;23.54;55.57;100474.37;126322;1099;104198;-78
2021/08/28 11:27:55;;;;;;;7.20;3.60;;;;;;;23.58;55.47;100472.54;126279;1099;104166;-79
2021/08/28 11:30:53;;;;;;;8.73;3.60;;;;;;;23.66;55.46;100475.95;126323;1099;104197;-79
2021/08/28 11:33:28;;;;;;;6.23;3.30;;;;;;;23.75;54.93;100473.10;126242;1099;104395;-79
2021/08/28 11:35:58;;;;;;;;;;;;;;;23.99;53.90;100477.11;126242;1099;104271;-77
2021/08/28 11:38:41;;;;;;;6.77;3.63;;;;;;;24.23;54.09;100477.52;126245;1096;104297;-78
2021/08/28 11:41:13;;;;;;;8.77;3.60;;;;;;;24.40;54.08;100478.05;126298;1098;104152;-79
2021/08/28 11:43:48;;;;;;;4.90;3.07;;;;;;;24.49;53.83;100478.77;126223;1099;104192;-77